sensor_id;sensor_type;location;lat;lon;timestamp;P1;durP1;ratioP1;P2;durP2;ratioP2
18724;SDS011;65581;52.130;5.584;2022-12-10T00:00:43;67.53;;;22.00;;
18724;SDS011;65581;52.130;5.584;2022-12-10T00:03:10;64.43;;;21.80;;
18724;SDS011;65581;52.130;5.584;2022-12-10T00:05:38;68.93;;;21.63;;
18724;SDS011;65581;52.130;5.584;2022-12-10T00:08:05;62.60;;;21.27;;
18724;SDS011;65581;52.130;5.584;2022-12-10T00:10:32;66.63;;;21.13;;
18724;SDS011;65581;52.130;5.584;2022-12-10T00:13:00;72.93;;;24.67;;
18724;SDS011;65581;52.130;5.584;2022-12-10T00:15:27;69.93;;;23.87;;
18724;SDS011;65581;52.130;5.584;2022-12-10T00:17:54;70.07;;;22.60;;
18724;SDS011;65581;52.130;5.584;2022-12-10T00:20:21;70.77;;;23.27;;
18724;SDS011;65581;52.130;5.584;2022-12-10T00:22:49;65.33;;;22.90;;
18724;SDS011;65581;52.130;5.584;2022-12-10T00:25:17;68.30;;;23.60;;
18724;SDS011;65581;52.130;5.584;2022-12-10T00:27:44;74.57;;;23.27;;
18724;SDS011;65581;52.130;5.584;2022-12-10T00:30:11;69.90;;;23.63;;
18724;SDS011;65581;52.130;5.584;2022-12-10T00:32:38;69.63;;;23.77;;
18724;SDS011;65581;52.130;5.584;2022-12-10T00:35:06;67.97;;;22.60;;
18724;SDS011;65581;52.130;5.584;2022-12-10T00:37:33;70.37;;;22.50;;
18724;SDS011;65581;52.130;5.584;2022-12-10T00:40:02;72.70;;;23.80;;
18724;SDS011;65581;52.130;5.584;2022-12-10T00:42:29;76.87;;;24.00;;
18724;SDS011;65581;52.130;5.584;2022-12-10T00:44:57;79.47;;;24.13;;
18724;SDS011;65581;52.130;5.584;2022-12-10T00:47:24;74.90;;;23.93;;
18724;SDS011;65581;52.130;5.584;2022-12-10T00:49:51;76.13;;;23.70;;
18724;SDS011;65581;52.130;5.584;2022-12-10T00:52:18;72.50;;;23.03;;
18724;SDS011;65581;52.130;5.584;2022-12-10T00:54:45;64.83;;;22.67;;
18724;SDS011;65581;52.130;5.584;2022-12-10T00:57:14;71.57;;;22.33;;
18724;SDS011;65581;52.130;5.584;2022-12-10T00:59:41;71.67;;;23.73;;
18724;SDS011;65581;52.130;5.584;2022-12-10T01:02:08;68.40;;;23.20;;
18724;SDS011;65581;52.130;5.584;2022-12-10T01:04:35;69.73;;;21.77;;
18724;SDS011;65581;52.130;5.584;2022-12-10T01:07:02;69.97;;;22.97;;
18724;SDS011;65581;52.130;5.584;2022-12-10T01:09:30;64.00;;;22.83;;
18724;SDS011;65581;52.130;5.584;2022-12-10T01:11:57;76.03;;;23.53;;
18724;SDS011;65581;52.130;5.584;2022-12-10T01:14:29;70.03;;;22.53;;
18724;SDS011;65581;52.130;5.584;2022-12-10T01:16:57;72.07;;;22.90;;
18724;SDS011;65581;52.130;5.584;2022-12-10T01:19:25;71.03;;;22.77;;
18724;SDS011;65581;52.130;5.584;2022-12-10T01:21:52;65.37;;;23.53;;
18724;SDS011;65581;52.130;5.584;2022-12-10T01:24:20;71.50;;;23.20;;
18724;SDS011;65581;52.130;5.584;2022-12-10T01:26:47;73.17;;;24.23;;
18724;SDS011;65581;52.130;5.584;2022-12-10T01:29:14;69.90;;;23.07;;
18724;SDS011;65581;52.130;5.584;2022-12-10T01:31:43;74.73;;;23.43;;
18724;SDS011;65581;52.130;5.584;2022-12-10T01:34:13;67.93;;;24.07;;
18724;SDS011;65581;52.130;5.584;2022-12-10T01:36:41;69.63;;;23.10;;
18724;SDS011;65581;52.130;5.584;2022-12-10T01:39:09;69.03;;;22.37;;
18724;SDS011;65581;52.130;5.584;2022-12-10T01:41:39;73.17;;;24.40;;
18724;SDS011;65581;52.130;5.584;2022-12-10T01:46:50;70.57;;;22.97;;
18724;SDS011;65581;52.130;5.584;2022-12-10T01:49:19;72.80;;;23.43;;
18724;SDS011;65581;52.130;5.584;2022-12-10T01:51:47;71.93;;;22.87;;
18724;SDS011;65581;52.130;5.584;2022-12-10T01:54:17;76.77;;;23.80;;
18724;SDS011;65581;52.130;5.584;2022-12-10T01:56:45;76.27;;;24.17;;
18724;SDS011;65581;52.130;5.584;2022-12-10T01:59:13;73.00;;;23.77;;
18724;SDS011;65581;52.130;5.584;2022-12-10T02:01:42;69.03;;;23.73;;
18724;SDS011;65581;52.130;5.584;2022-12-10T02:04:15;67.17;;;24.03;;
18724;SDS011;65581;52.130;5.584;2022-12-10T02:06:48;70.70;;;23.53;;
18724;SDS011;65581;52.130;5.584;2022-12-10T02:09:19;69.50;;;23.70;;
18724;SDS011;65581;52.130;5.584;2022-12-10T02:11:49;63.07;;;23.10;;
18724;SDS011;65581;52.130;5.584;2022-12-10T02:14:21;74.47;;;24.30;;
18724;SDS011;65581;52.130;5.584;2022-12-10T02:16:51;73.03;;;23.30;;
18724;SDS011;65581;52.130;5.584;2022-12-10T02:19:23;82.93;;;25.00;;
18724;SDS011;65581;52.130;5.584;2022-12-10T02:21:52;82.40;;;26.23;;
18724;SDS011;65581;52.130;5.584;2022-12-10T02:24:27;83.20;;;26.17;;
18724;SDS011;65581;52.130;5.584;2022-12-10T02:26:56;94.43;;;27.77;;
18724;SDS011;65581;52.130;5.584;2022-12-10T02:29:27;82.70;;;26.70;;
18724;SDS011;65581;52.130;5.584;2022-12-10T02:31:56;80.13;;;26.07;;
18724;SDS011;65581;52.130;5.584;2022-12-10T02:34:26;84.37;;;26.97;;
18724;SDS011;65581;52.130;5.584;2022-12-10T02:36:56;84.27;;;25.83;;
18724;SDS011;65581;52.130;5.584;2022-12-10T02:39:25;87.90;;;26.10;;
18724;SDS011;65581;52.130;5.584;2022-12-10T02:41:53;87.37;;;26.33;;
18724;SDS011;65581;52.130;5.584;2022-12-10T02:44:21;87.70;;;26.67;;
18724;SDS011;65581;52.130;5.584;2022-12-10T02:46:51;81.00;;;24.87;;
18724;SDS011;65581;52.130;5.584;2022-12-10T02:49:19;85.37;;;26.83;;
18724;SDS011;65581;52.130;5.584;2022-12-10T02:51:47;76.17;;;25.37;;
18724;SDS011;65581;52.130;5.584;2022-12-10T02:57:00;85.87;;;26.27;;
18724;SDS011;65581;52.130;5.584;2022-12-10T02:59:31;85.00;;;27.07;;
18724;SDS011;65581;52.130;5.584;2022-12-10T03:02:02;92.60;;;27.37;;
18724;SDS011;65581;52.130;5.584;2022-12-10T03:04:33;80.93;;;25.83;;
18724;SDS011;65581;52.130;5.584;2022-12-10T03:07:03;103.23;;;25.00;;
18724;SDS011;65581;52.130;5.584;2022-12-10T03:09:32;86.30;;;25.67;;
18724;SDS011;65581;52.130;5.584;2022-12-10T03:12:03;85.33;;;24.53;;
18724;SDS011;65581;52.130;5.584;2022-12-10T03:14:35;82.40;;;25.00;;
18724;SDS011;65581;52.130;5.584;2022-12-10T03:17:04;102.63;;;27.50;;
18724;SDS011;65581;52.130;5.584;2022-12-10T03:19:33;108.93;;;26.00;;
18724;SDS011;65581;52.130;5.584;2022-12-10T03:22:02;93.57;;;25.73;;
18724;SDS011;65581;52.130;5.584;2022-12-10T03:24:29;124.33;;;25.83;;
18724;SDS011;65581;52.130;5.584;2022-12-10T03:26:57;98.27;;;25.63;;
18724;SDS011;65581;52.130;5.584;2022-12-10T03:29:26;93.60;;;24.50;;
18724;SDS011;65581;52.130;5.584;2022-12-10T03:31:54;109.00;;;26.47;;
18724;SDS011;65581;52.130;5.584;2022-12-10T03:34:23;92.60;;;25.43;;
18724;SDS011;65581;52.130;5.584;2022-12-10T03:36:50;100.17;;;26.50;;
18724;SDS011;65581;52.130;5.584;2022-12-10T03:39:17;106.90;;;25.43;;
18724;SDS011;65581;52.130;5.584;2022-12-10T03:41:45;136.40;;;24.83;;
18724;SDS011;65581;52.130;5.584;2022-12-10T03:44:12;113.70;;;25.60;;
18724;SDS011;65581;52.130;5.584;2022-12-10T03:46:39;128.63;;;25.80;;
18724;SDS011;65581;52.130;5.584;2022-12-10T03:49:06;107.67;;;25.87;;
18724;SDS011;65581;52.130;5.584;2022-12-10T03:51:35;137.77;;;26.57;;
18724;SDS011;65581;52.130;5.584;2022-12-10T03:54:02;123.37;;;23.63;;
18724;SDS011;65581;52.130;5.584;2022-12-10T03:56:29;113.03;;;25.23;;
18724;SDS011;65581;52.130;5.584;2022-12-10T03:58:56;114.23;;;24.60;;
18724;SDS011;65581;52.130;5.584;2022-12-10T04:01:23;101.60;;;23.83;;
18724;SDS011;65581;52.130;5.584;2022-12-10T04:03:51;129.27;;;25.70;;
18724;SDS011;65581;52.130;5.584;2022-12-10T04:06:18;126.23;;;25.03;;
18724;SDS011;65581;52.130;5.584;2022-12-10T04:08:47;142.97;;;27.10;;
18724;SDS011;65581;52.130;5.584;2022-12-10T04:11:14;168.53;;;26.67;;
18724;SDS011;65581;52.130;5.584;2022-12-10T04:13:42;116.67;;;23.93;;
18724;SDS011;65581;52.130;5.584;2022-12-10T04:16:27;131.30;;;22.73;;
18724;SDS011;65581;52.130;5.584;2022-12-10T04:18:55;117.73;;;24.47;;
18724;SDS011;65581;52.130;5.584;2022-12-10T04:21:23;116.30;;;24.37;;
18724;SDS011;65581;52.130;5.584;2022-12-10T04:24:09;137.70;;;24.63;;
18724;SDS011;65581;52.130;5.584;2022-12-10T04:26:54;157.53;;;23.03;;
18724;SDS011;65581;52.130;5.584;2022-12-10T04:29:22;155.47;;;23.50;;
18724;SDS011;65581;52.130;5.584;2022-12-10T04:31:50;140.63;;;21.77;;
18724;SDS011;65581;52.130;5.584;2022-12-10T04:34:17;143.97;;;23.53;;
18724;SDS011;65581;52.130;5.584;2022-12-10T04:36:45;110.03;;;23.30;;
18724;SDS011;65581;52.130;5.584;2022-12-10T04:39:14;155.87;;;23.53;;
18724;SDS011;65581;52.130;5.584;2022-12-10T04:41:42;174.20;;;22.97;;
18724;SDS011;65581;52.130;5.584;2022-12-10T04:44:09;93.57;;;23.10;;
18724;SDS011;65581;52.130;5.584;2022-12-10T04:46:37;139.40;;;23.10;;
18724;SDS011;65581;52.130;5.584;2022-12-10T04:49:04;172.00;;;23.43;;
18724;SDS011;65581;52.130;5.584;2022-12-10T04:51:31;133.03;;;23.17;;
18724;SDS011;65581;52.130;5.584;2022-12-10T04:53:58;173.57;;;24.47;;
18724;SDS011;65581;52.130;5.584;2022-12-10T04:56:27;117.33;;;25.80;;
18724;SDS011;65581;52.130;5.584;2022-12-10T04:58:55;135.07;;;25.70;;
18724;SDS011;65581;52.130;5.584;2022-12-10T05:01:22;117.83;;;24.73;;
18724;SDS011;65581;52.130;5.584;2022-12-10T05:03:50;139.70;;;24.03;;
18724;SDS011;65581;52.130;5.584;2022-12-10T05:06:17;140.37;;;25.40;;
18724;SDS011;65581;52.130;5.584;2022-12-10T05:08:46;128.93;;;23.40;;
18724;SDS011;65581;52.130;5.584;2022-12-10T05:11:15;111.37;;;23.93;;
18724;SDS011;65581;52.130;5.584;2022-12-10T05:13:43;120.83;;;23.83;;
18724;SDS011;65581;52.130;5.584;2022-12-10T05:16:11;124.23;;;23.50;;
18724;SDS011;65581;52.130;5.584;2022-12-10T05:18:39;118.30;;;23.77;;
18724;SDS011;65581;52.130;5.584;2022-12-10T05:21:07;116.77;;;23.13;;
18724;SDS011;65581;52.130;5.584;2022-12-10T05:23:35;94.90;;;22.40;;
18724;SDS011;65581;52.130;5.584;2022-12-10T05:26:02;176.87;;;23.50;;
18724;SDS011;65581;52.130;5.584;2022-12-10T05:28:30;120.77;;;22.33;;
18724;SDS011;65581;52.130;5.584;2022-12-10T05:30:59;153.20;;;23.83;;
18724;SDS011;65581;52.130;5.584;2022-12-10T05:33:26;110.07;;;22.77;;
18724;SDS011;65581;52.130;5.584;2022-12-10T05:35:54;105.37;;;22.43;;
18724;SDS011;65581;52.130;5.584;2022-12-10T05:38:22;109.27;;;21.77;;
18724;SDS011;65581;52.130;5.584;2022-12-10T05:40:49;98.43;;;23.13;;
18724;SDS011;65581;52.130;5.584;2022-12-10T05:43:17;137.80;;;22.97;;
18724;SDS011;65581;52.130;5.584;2022-12-10T05:45:44;128.13;;;22.83;;
18724;SDS011;65581;52.130;5.584;2022-12-10T05:48:13;117.13;;;23.90;;
18724;SDS011;65581;52.130;5.584;2022-12-10T05:50:41;130.83;;;23.37;;
18724;SDS011;65581;52.130;5.584;2022-12-10T05:53:08;121.00;;;24.40;;
18724;SDS011;65581;52.130;5.584;2022-12-10T05:55:35;113.13;;;23.37;;
18724;SDS011;65581;52.130;5.584;2022-12-10T05:58:02;110.80;;;23.97;;
18724;SDS011;65581;52.130;5.584;2022-12-10T06:00:29;120.63;;;24.00;;
18724;SDS011;65581;52.130;5.584;2022-12-10T06:02:56;136.37;;;23.70;;
18724;SDS011;65581;52.130;5.584;2022-12-10T06:05:25;135.13;;;24.40;;
18724;SDS011;65581;52.130;5.584;2022-12-10T06:07:52;150.93;;;24.70;;
18724;SDS011;65581;52.130;5.584;2022-12-10T06:10:19;135.90;;;24.37;;
18724;SDS011;65581;52.130;5.584;2022-12-10T06:12:46;124.93;;;24.87;;
18724;SDS011;65581;52.130;5.584;2022-12-10T06:15:14;148.30;;;23.93;;
18724;SDS011;65581;52.130;5.584;2022-12-10T06:17:41;123.77;;;23.83;;
18724;SDS011;65581;52.130;5.584;2022-12-10T06:20:09;160.37;;;26.90;;
18724;SDS011;65581;52.130;5.584;2022-12-10T06:22:37;159.10;;;26.77;;
18724;SDS011;65581;52.130;5.584;2022-12-10T06:25:05;161.87;;;30.43;;
18724;SDS011;65581;52.130;5.584;2022-12-10T06:27:32;170.10;;;29.83;;
18724;SDS011;65581;52.130;5.584;2022-12-10T06:29:59;176.43;;;30.30;;
18724;SDS011;65581;52.130;5.584;2022-12-10T06:32:26;218.73;;;33.10;;
18724;SDS011;65581;52.130;5.584;2022-12-10T06:34:54;198.80;;;32.47;;
18724;SDS011;65581;52.130;5.584;2022-12-10T06:37:21;159.53;;;31.57;;
18724;SDS011;65581;52.130;5.584;2022-12-10T06:39:50;182.13;;;33.67;;
18724;SDS011;65581;52.130;5.584;2022-12-10T06:42:18;191.00;;;35.70;;
18724;SDS011;65581;52.130;5.584;2022-12-10T06:44:46;262.87;;;46.43;;
18724;SDS011;65581;52.130;5.584;2022-12-10T06:47:13;169.47;;;35.50;;
18724;SDS011;65581;52.130;5.584;2022-12-10T06:49:41;166.83;;;30.70;;
18724;SDS011;65581;52.130;5.584;2022-12-10T06:52:08;258.77;;;35.30;;
18724;SDS011;65581;52.130;5.584;2022-12-10T06:54:35;200.70;;;35.70;;
18724;SDS011;65581;52.130;5.584;2022-12-10T06:57:04;188.80;;;37.47;;
18724;SDS011;65581;52.130;5.584;2022-12-10T06:59:42;185.50;;;32.93;;
18724;SDS011;65581;52.130;5.584;2022-12-10T07:02:11;179.18;;;37.55;;
18724;SDS011;65581;52.130;5.584;2022-12-10T07:04:52;148.03;;;28.73;;
18724;SDS011;65581;52.130;5.584;2022-12-10T07:07:35;115.00;;;23.77;;
18724;SDS011;65581;52.130;5.584;2022-12-10T07:10:06;114.43;;;26.00;;
18724;SDS011;65581;52.130;5.584;2022-12-10T07:12:40;144.40;;;26.33;;
18724;SDS011;65581;52.130;5.584;2022-12-10T07:15:07;140.13;;;25.13;;
18724;SDS011;65581;52.130;5.584;2022-12-10T07:17:35;150.73;;;26.73;;
18724;SDS011;65581;52.130;5.584;2022-12-10T07:20:02;151.30;;;30.03;;
18724;SDS011;65581;52.130;5.584;2022-12-10T07:22:29;122.70;;;30.17;;
18724;SDS011;65581;52.130;5.584;2022-12-10T07:24:56;133.70;;;28.23;;
18724;SDS011;65581;52.130;5.584;2022-12-10T07:27:24;161.23;;;28.83;;
18724;SDS011;65581;52.130;5.584;2022-12-10T07:29:53;187.53;;;31.13;;
18724;SDS011;65581;52.130;5.584;2022-12-10T07:32:20;138.13;;;29.23;;
18724;SDS011;65581;52.130;5.584;2022-12-10T07:34:47;226.90;;;33.20;;
18724;SDS011;65581;52.130;5.584;2022-12-10T07:37:14;221.90;;;32.67;;
18724;SDS011;65581;52.130;5.584;2022-12-10T07:39:41;167.23;;;32.37;;
18724;SDS011;65581;52.130;5.584;2022-12-10T07:42:09;197.83;;;31.10;;
18724;SDS011;65581;52.130;5.584;2022-12-10T07:44:36;211.27;;;34.23;;
18724;SDS011;65581;52.130;5.584;2022-12-10T07:47:04;270.17;;;34.87;;
18724;SDS011;65581;52.130;5.584;2022-12-10T07:49:31;357.23;;;42.13;;
18724;SDS011;65581;52.130;5.584;2022-12-10T07:51:59;418.43;;;48.83;;
18724;SDS011;65581;52.130;5.584;2022-12-10T07:54:27;481.73;;;55.90;;
18724;SDS011;65581;52.130;5.584;2022-12-10T07:56:54;461.23;;;56.83;;
18724;SDS011;65581;52.130;5.584;2022-12-10T07:59:22;494.73;;;55.17;;
18724;SDS011;65581;52.130;5.584;2022-12-10T08:01:49;373.60;;;50.47;;
18724;SDS011;65581;52.130;5.584;2022-12-10T08:04:17;330.03;;;43.37;;
18724;SDS011;65581;52.130;5.584;2022-12-10T08:06:44;227.63;;;35.43;;
18724;SDS011;65581;52.130;5.584;2022-12-10T08:09:12;145.97;;;29.17;;
18724;SDS011;65581;52.130;5.584;2022-12-10T08:11:40;147.93;;;29.70;;
18724;SDS011;65581;52.130;5.584;2022-12-10T08:14:07;127.47;;;27.47;;
18724;SDS011;65581;52.130;5.584;2022-12-10T08:16:35;129.07;;;27.33;;
18724;SDS011;65581;52.130;5.584;2022-12-10T08:19:02;195.27;;;33.47;;
18724;SDS011;65581;52.130;5.584;2022-12-10T08:21:31;361.73;;;44.83;;
18724;SDS011;65581;52.130;5.584;2022-12-10T08:23:59;298.43;;;41.57;;
18724;SDS011;65581;52.130;5.584;2022-12-10T08:26:27;281.67;;;37.27;;
18724;SDS011;65581;52.130;5.584;2022-12-10T08:28:55;175.30;;;30.73;;
18724;SDS011;65581;52.130;5.584;2022-12-10T08:31:22;178.17;;;29.63;;
18724;SDS011;65581;52.130;5.584;2022-12-10T08:33:50;158.57;;;29.00;;
18724;SDS011;65581;52.130;5.584;2022-12-10T08:36:17;171.27;;;28.80;;
18724;SDS011;65581;52.130;5.584;2022-12-10T08:38:46;158.83;;;31.13;;
18724;SDS011;65581;52.130;5.584;2022-12-10T08:41:14;184.63;;;30.57;;
18724;SDS011;65581;52.130;5.584;2022-12-10T08:43:42;162.73;;;28.80;;
18724;SDS011;65581;52.130;5.584;2022-12-10T08:46:13;181.53;;;29.37;;
18724;SDS011;65581;52.130;5.584;2022-12-10T08:48:40;166.70;;;26.90;;
18724;SDS011;65581;52.130;5.584;2022-12-10T08:51:08;145.50;;;27.37;;
18724;SDS011;65581;52.130;5.584;2022-12-10T08:53:35;141.33;;;26.53;;
18724;SDS011;65581;52.130;5.584;2022-12-10T08:56:06;155.90;;;27.37;;
18724;SDS011;65581;52.130;5.584;2022-12-10T08:58:33;121.13;;;24.90;;
18724;SDS011;65581;52.130;5.584;2022-12-10T09:01:02;135.73;;;27.23;;
18724;SDS011;65581;52.130;5.584;2022-12-10T09:03:31;152.07;;;28.40;;
18724;SDS011;65581;52.130;5.584;2022-12-10T09:06:01;134.63;;;25.63;;
18724;SDS011;65581;52.130;5.584;2022-12-10T09:08:28;155.70;;;29.67;;
18724;SDS011;65581;52.130;5.584;2022-12-10T09:10:55;194.03;;;33.30;;
18724;SDS011;65581;52.130;5.584;2022-12-10T09:13:24;132.47;;;25.33;;
18724;SDS011;65581;52.130;5.584;2022-12-10T09:15:51;119.50;;;25.00;;
18724;SDS011;65581;52.130;5.584;2022-12-10T09:18:18;93.87;;;21.67;;
18724;SDS011;65581;52.130;5.584;2022-12-10T09:20:46;109.93;;;23.47;;
18724;SDS011;65581;52.130;5.584;2022-12-10T09:23:13;125.50;;;25.17;;
18724;SDS011;65581;52.130;5.584;2022-12-10T09:25:40;120.40;;;27.63;;
18724;SDS011;65581;52.130;5.584;2022-12-10T09:28:07;150.90;;;28.87;;
18724;SDS011;65581;52.130;5.584;2022-12-10T09:30:36;178.30;;;30.77;;
18724;SDS011;65581;52.130;5.584;2022-12-10T09:33:03;165.17;;;31.43;;
18724;SDS011;65581;52.130;5.584;2022-12-10T09:35:30;179.20;;;33.10;;
18724;SDS011;65581;52.130;5.584;2022-12-10T09:37:58;175.03;;;30.33;;
18724;SDS011;65581;52.130;5.584;2022-12-10T09:40:26;239.67;;;38.93;;
18724;SDS011;65581;52.130;5.584;2022-12-10T09:42:58;273.37;;;42.07;;
18724;SDS011;65581;52.130;5.584;2022-12-10T09:45:29;196.07;;;34.40;;
18724;SDS011;65581;52.130;5.584;2022-12-10T09:48:01;171.37;;;34.33;;
18724;SDS011;65581;52.130;5.584;2022-12-10T09:50:33;169.50;;;30.83;;
18724;SDS011;65581;52.130;5.584;2022-12-10T09:53:03;133.30;;;25.83;;
18724;SDS011;65581;52.130;5.584;2022-12-10T09:55:32;145.00;;;26.23;;
18724;SDS011;65581;52.130;5.584;2022-12-10T09:58:01;150.57;;;28.97;;
18724;SDS011;65581;52.130;5.584;2022-12-10T10:00:30;151.00;;;29.40;;
18724;SDS011;65581;52.130;5.584;2022-12-10T10:03:00;174.63;;;31.47;;
18724;SDS011;65581;52.130;5.584;2022-12-10T10:05:28;164.10;;;30.93;;
18724;SDS011;65581;52.130;5.584;2022-12-10T10:07:57;148.90;;;29.43;;
18724;SDS011;65581;52.130;5.584;2022-12-10T10:10:26;128.10;;;26.23;;
18724;SDS011;65581;52.130;5.584;2022-12-10T10:12:54;150.13;;;29.70;;
18724;SDS011;65581;52.130;5.584;2022-12-10T10:15:24;140.77;;;27.30;;
18724;SDS011;65581;52.130;5.584;2022-12-10T10:17:52;156.07;;;29.67;;
18724;SDS011;65581;52.130;5.584;2022-12-10T10:20:21;142.80;;;27.27;;
18724;SDS011;65581;52.130;5.584;2022-12-10T10:22:48;129.10;;;27.27;;
18724;SDS011;65581;52.130;5.584;2022-12-10T10:25:16;136.47;;;29.03;;
18724;SDS011;65581;52.130;5.584;2022-12-10T10:27:44;138.20;;;27.80;;
18724;SDS011;65581;52.130;5.584;2022-12-10T10:30:13;120.63;;;27.73;;
18724;SDS011;65581;52.130;5.584;2022-12-10T10:32:46;114.80;;;26.67;;
18724;SDS011;65581;52.130;5.584;2022-12-10T10:35:19;139.97;;;31.40;;
18724;SDS011;65581;52.130;5.584;2022-12-10T10:37:48;115.20;;;26.37;;
18724;SDS011;65581;52.130;5.584;2022-12-10T10:40:21;111.03;;;25.57;;
18724;SDS011;65581;52.130;5.584;2022-12-10T10:42:51;145.93;;;28.83;;
18724;SDS011;65581;52.130;5.584;2022-12-10T10:45:32;152.50;;;30.10;;
18724;SDS011;65581;52.130;5.584;2022-12-10T10:48:03;182.03;;;37.23;;
18724;SDS011;65581;52.130;5.584;2022-12-10T10:50:32;245.23;;;49.40;;
18724;SDS011;65581;52.130;5.584;2022-12-10T10:56:01;171.13;;;39.20;;
18724;SDS011;65581;52.130;5.584;2022-12-10T10:58:32;145.33;;;36.23;;
18724;SDS011;65581;52.130;5.584;2022-12-10T11:01:00;130.07;;;31.37;;
18724;SDS011;65581;52.130;5.584;2022-12-10T11:03:29;127.10;;;28.33;;
18724;SDS011;65581;52.130;5.584;2022-12-10T11:05:57;113.73;;;28.37;;
18724;SDS011;65581;52.130;5.584;2022-12-10T11:08:25;91.37;;;23.13;;
18724;SDS011;65581;52.130;5.584;2022-12-10T11:10:55;96.97;;;22.20;;
18724;SDS011;65581;52.130;5.584;2022-12-10T11:13:25;93.53;;;22.57;;
18724;SDS011;65581;52.130;5.584;2022-12-10T11:15:55;112.47;;;23.73;;
18724;SDS011;65581;52.130;5.584;2022-12-10T11:18:23;99.13;;;26.17;;
18724;SDS011;65581;52.130;5.584;2022-12-10T11:20:56;119.93;;;30.85;;
18724;SDS011;65581;52.130;5.584;2022-12-10T11:23:26;127.88;;;30.83;;
18724;SDS011;65581;52.130;5.584;2022-12-10T11:25:55;94.20;;;24.17;;
18724;SDS011;65581;52.130;5.584;2022-12-10T11:28:31;80.87;;;20.37;;
18724;SDS011;65581;52.130;5.584;2022-12-10T11:31:03;91.67;;;21.50;;
18724;SDS011;65581;52.130;5.584;2022-12-10T11:33:37;86.03;;;21.73;;
18724;SDS011;65581;52.130;5.584;2022-12-10T11:36:08;92.27;;;22.07;;
18724;SDS011;65581;52.130;5.584;2022-12-10T11:38:43;88.27;;;22.30;;
18724;SDS011;65581;52.130;5.584;2022-12-10T11:41:15;79.50;;;19.97;;
18724;SDS011;65581;52.130;5.584;2022-12-10T11:43:56;87.13;;;21.87;;
18724;SDS011;65581;52.130;5.584;2022-12-10T11:46:33;105.00;;;24.83;;
18724;SDS011;65581;52.130;5.584;2022-12-10T11:49:09;108.40;;;22.93;;
18724;SDS011;65581;52.130;5.584;2022-12-10T11:51:42;92.80;;;22.87;;
18724;SDS011;65581;52.130;5.584;2022-12-10T11:54:22;91.60;;;21.60;;
18724;SDS011;65581;52.130;5.584;2022-12-10T11:56:52;122.27;;;21.37;;
18724;SDS011;65581;52.130;5.584;2022-12-10T11:59:26;88.53;;;20.40;;
18724;SDS011;65581;52.130;5.584;2022-12-10T12:01:59;83.57;;;18.70;;
18724;SDS011;65581;52.130;5.584;2022-12-10T12:04:31;79.43;;;17.43;;
18724;SDS011;65581;52.130;5.584;2022-12-10T12:07:09;70.33;;;17.30;;
18724;SDS011;65581;52.130;5.584;2022-12-10T12:09:44;73.20;;;17.07;;
18724;SDS011;65581;52.130;5.584;2022-12-10T12:12:16;84.53;;;17.47;;
18724;SDS011;65581;52.130;5.584;2022-12-10T12:14:50;72.30;;;17.97;;
18724;SDS011;65581;52.130;5.584;2022-12-10T12:17:20;81.27;;;18.20;;
18724;SDS011;65581;52.130;5.584;2022-12-10T12:19:49;74.30;;;17.47;;
18724;SDS011;65581;52.130;5.584;2022-12-10T12:22:21;88.17;;;17.80;;
18724;SDS011;65581;52.130;5.584;2022-12-10T12:24:49;78.40;;;20.47;;
18724;SDS011;65581;52.130;5.584;2022-12-10T12:27:20;75.67;;;17.53;;
18724;SDS011;65581;52.130;5.584;2022-12-10T12:29:53;82.70;;;18.83;;
18724;SDS011;65581;52.130;5.584;2022-12-10T12:32:24;83.63;;;17.83;;
18724;SDS011;65581;52.130;5.584;2022-12-10T12:34:52;90.70;;;20.70;;
18724;SDS011;65581;52.130;5.584;2022-12-10T12:37:22;111.27;;;22.00;;
18724;SDS011;65581;52.130;5.584;2022-12-10T12:39:50;72.53;;;18.97;;
18724;SDS011;65581;52.130;5.584;2022-12-10T12:42:21;77.70;;;20.37;;
18724;SDS011;65581;52.130;5.584;2022-12-10T12:44:53;81.67;;;19.73;;
18724;SDS011;65581;52.130;5.584;2022-12-10T12:47:26;73.10;;;18.40;;
18724;SDS011;65581;52.130;5.584;2022-12-10T12:49:56;77.10;;;22.40;;
18724;SDS011;65581;52.130;5.584;2022-12-10T12:52:26;79.17;;;19.60;;
18724;SDS011;65581;52.130;5.584;2022-12-10T12:54:58;74.10;;;20.83;;
18724;SDS011;65581;52.130;5.584;2022-12-10T12:57:28;62.77;;;18.70;;
18724;SDS011;65581;52.130;5.584;2022-12-10T13:00:00;72.17;;;20.80;;
18724;SDS011;65581;52.130;5.584;2022-12-10T13:02:39;127.63;;;34.37;;
18724;SDS011;65581;52.130;5.584;2022-12-10T13:05:12;74.43;;;17.67;;
18724;SDS011;65581;52.130;5.584;2022-12-10T13:07:39;89.37;;;21.30;;
18724;SDS011;65581;52.130;5.584;2022-12-10T13:10:09;81.43;;;18.57;;
18724;SDS011;65581;52.130;5.584;2022-12-10T13:12:45;64.30;;;16.47;;
18724;SDS011;65581;52.130;5.584;2022-12-10T13:15:19;60.73;;;16.00;;
18724;SDS011;65581;52.130;5.584;2022-12-10T13:18:01;65.70;;;16.90;;
18724;SDS011;65581;52.130;5.584;2022-12-10T13:20:30;59.40;;;15.23;;
18724;SDS011;65581;52.130;5.584;2022-12-10T13:22:58;66.70;;;18.90;;
18724;SDS011;65581;52.130;5.584;2022-12-10T13:28:27;62.43;;;16.37;;
18724;SDS011;65581;52.130;5.584;2022-12-10T13:33:48;73.43;;;18.23;;
18724;SDS011;65581;52.130;5.584;2022-12-10T13:36:19;73.90;;;17.90;;
18724;SDS011;65581;52.130;5.584;2022-12-10T13:38:54;72.67;;;17.53;;
18724;SDS011;65581;52.130;5.584;2022-12-10T13:41:22;63.10;;;18.37;;
18724;SDS011;65581;52.130;5.584;2022-12-10T13:44:23;72.37;;;19.73;;
18724;SDS011;65581;52.130;5.584;2022-12-10T13:47:00;74.50;;;21.03;;
18724;SDS011;65581;52.130;5.584;2022-12-10T13:49:33;62.77;;;16.87;;
18724;SDS011;65581;52.130;5.584;2022-12-10T13:52:02;60.30;;;16.67;;
18724;SDS011;65581;52.130;5.584;2022-12-10T13:54:47;68.70;;;17.87;;
18724;SDS011;65581;52.130;5.584;2022-12-10T13:57:24;70.57;;;18.03;;
18724;SDS011;65581;52.130;5.584;2022-12-10T13:59:55;61.40;;;17.20;;
18724;SDS011;65581;52.130;5.584;2022-12-10T14:02:37;65.37;;;17.73;;
18724;SDS011;65581;52.130;5.584;2022-12-10T14:05:17;73.50;;;19.10;;
18724;SDS011;65581;52.130;5.584;2022-12-10T14:07:48;70.33;;;19.17;;
18724;SDS011;65581;52.130;5.584;2022-12-10T14:10:18;57.90;;;17.63;;
18724;SDS011;65581;52.130;5.584;2022-12-10T14:12:46;58.10;;;17.40;;
18724;SDS011;65581;52.130;5.584;2022-12-10T14:15:15;69.73;;;16.07;;
18724;SDS011;65581;52.130;5.584;2022-12-10T14:17:43;56.17;;;16.30;;
18724;SDS011;65581;52.130;5.584;2022-12-10T14:20:13;61.77;;;17.23;;
18724;SDS011;65581;52.130;5.584;2022-12-10T14:22:44;57.97;;;16.20;;
18724;SDS011;65581;52.130;5.584;2022-12-10T14:25:13;61.67;;;15.10;;
18724;SDS011;65581;52.130;5.584;2022-12-10T14:27:40;60.57;;;14.93;;
18724;SDS011;65581;52.130;5.584;2022-12-10T14:30:15;49.57;;;15.47;;
18724;SDS011;65581;52.130;5.584;2022-12-10T14:32:42;76.97;;;16.73;;
18724;SDS011;65581;52.130;5.584;2022-12-10T14:35:12;66.70;;;16.90;;
18724;SDS011;65581;52.130;5.584;2022-12-10T14:37:40;69.33;;;17.20;;
18724;SDS011;65581;52.130;5.584;2022-12-10T14:40:12;86.87;;;16.83;;